sensor_id;sensor_type;location;lat;lon;timestamp;pressure;altitude;pressure_sealevel;temperature;humidity
61571;BME280;47463;49.884;10.010;2023-12-20T00:00:01;101940;;;4.3;90
61571;BME280;47463;49.884;10.010;2023-12-20T00:05:01;101940;;;4.4;90
61571;BME280;47463;49.884;10.010;2023-12-20T00:10:01;101940;;;4.4;89
61571;BME280;47463;49.884;10.010;2023-12-20T00:15:01;101940;;;4.4;89
61571;BME280;47463;49.884;10.010;2023-12-20T00:20:01;101940;;;4.4;89
61571;BME280;47463;49.884;10.010;2023-12-20T00:25:01;101930;;;4.4;89
61571;BME280;47463;49.884;10.010;2023-12-20T00:30:01;101920;;;4.4;89
61571;BME280;47463;49.884;10.010;2023-12-20T00:35:01;101910;;;4.4;89
61571;BME280;47463;49.884;10.010;2023-12-20T00:40:01;101910;;;4.4;89
61571;BME280;47463;49.884;10.010;2023-12-20T00:45:01;101900;;;4.5;89
61571;BME280;47463;49.884;10.010;2023-12-20T00:50:01;101910;;;4.5;88
61571;BME280;47463;49.884;10.010;2023-12-20T00:55:01;101890;;;4.6;88
61571;BME280;47463;49.884;10.010;2023-12-20T01:00:01;101890;;;4.6;87
61571;BME280;47463;49.884;10.010;2023-12-20T01:05:01;101880;;;4.6;86
61571;BME280;47463;49.884;10.010;2023-12-20T01:10:01;101880;;;4.5;86
61571;BME280;47463;49.884;10.010;2023-12-20T01:15:01;101880;;;4.5;86
61571;BME280;47463;49.884;10.010;2023-12-20T01:20:01;101870;;;4.5;86
61571;BME280;47463;49.884;10.010;2023-12-20T01:25:01;101870;;;4.4;86
61571;BME280;47463;49.884;10.010;2023-12-20T01:30:01;101860;;;4.4;86
61571;BME280;47463;49.884;10.010;2023-12-20T01:35:01;101850;;;4.4;86
61571;BME280;47463;49.884;10.010;2023-12-20T01:40:01;101850;;;4.4;86
61571;BME280;47463;49.884;10.010;2023-12-20T01:45:01;101840;;;4.3;86
61571;BME280;47463;49.884;10.010;2023-12-20T01:50:01;101850;;;4.3;86
61571;BME280;47463;49.884;10.010;2023-12-20T01:55:01;101860;;;4.2;86
61571;BME280;47463;49.884;10.010;2023-12-20T02:00:01;101850;;;4.2;86
61571;BME280;47463;49.884;10.010;2023-12-20T02:05:01;101850;;;4.2;86
61571;BME280;47463;49.884;10.010;2023-12-20T02:10:01;101830;;;4.2;86
61571;BME280;47463;49.884;10.010;2023-12-20T02:15:01;101830;;;4.1;86
61571;BME280;47463;49.884;10.010;2023-12-20T02:20:01;101840;;;4.1;86
61571;BME280;47463;49.884;10.010;2023-12-20T02:25:01;101850;;;4.1;87
61571;BME280;47463;49.884;10.010;2023-12-20T02:30:01;101850;;;4;87
61571;BME280;47463;49.884;10.010;2023-12-20T02:35:01;101840;;;4;87
61571;BME280;47463;49.884;10.010;2023-12-20T02:40:01;101850;;;4;87
61571;BME280;47463;49.884;10.010;2023-12-20T02:45:01;101850;;;4;87
61571;BME280;47463;49.884;10.010;2023-12-20T02:50:01;101840;;;4;87
61571;BME280;47463;49.884;10.010;2023-12-20T02:55:01;101840;;;4;87
61571;BME280;47463;49.884;10.010;2023-12-20T03:00:01;101840;;;4;87
61571;BME280;47463;49.884;10.010;2023-12-20T03:05:01;101850;;;4;87
61571;BME280;47463;49.884;10.010;2023-12-20T03:10:01;101850;;;3.9;87
61571;BME280;47463;49.884;10.010;2023-12-20T03:15:01;101850;;;3.9;87
61571;BME280;47463;49.884;10.010;2023-12-20T03:20:01;101840;;;3.9;87
61571;BME280;47463;49.884;10.010;2023-12-20T03:25:01;101830;;;3.9;87
61571;BME280;47463;49.884;10.010;2023-12-20T03:30:01;101840;;;3.9;87
61571;BME280;47463;49.884;10.010;2023-12-20T03:35:01;101840;;;3.9;87
61571;BME280;47463;49.884;10.010;2023-12-20T03:40:01;101830;;;3.8;87
61571;BME280;47463;49.884;10.010;2023-12-20T03:45:01;101840;;;3.8;87
61571;BME280;47463;49.884;10.010;2023-12-20T03:50:01;101840;;;3.8;87
61571;BME280;47463;49.884;10.010;2023-12-20T03:55:01;101840;;;3.8;87
61571;BME280;47463;49.884;10.010;2023-12-20T04:00:01;101830;;;3.8;87
61571;BME280;47463;49.884;10.010;2023-12-20T04:05:01;101830;;;3.8;87
61571;BME280;47463;49.884;10.010;2023-12-20T04:10:01;101840;;;3.8;87
61571;BME280;47463;49.884;10.010;2023-12-20T04:15:01;101850;;;3.8;87
61571;BME280;47463;49.884;10.010;2023-12-20T04:20:01;101840;;;3.8;87
61571;BME280;47463;49.884;10.010;2023-12-20T04:25:01;101850;;;3.8;87
61571;BME280;47463;49.884;10.010;2023-12-20T04:30:01;101850;;;3.8;87
61571;BME280;47463;49.884;10.010;2023-12-20T04:35:01;101840;;;3.8;87
61571;BME280;47463;49.884;10.010;2023-12-20T04:40:01;101850;;;3.8;88
61571;BME280;47463;49.884;10.010;2023-12-20T04:45:01;101850;;;3.8;88
61571;BME280;47463;49.884;10.010;2023-12-20T04:50:01;101850;;;3.9;88
61571;BME280;47463;49.884;10.010;2023-12-20T04:55:01;101860;;;3.9;88
61571;BME280;47463;49.884;10.010;2023-12-20T05:00:01;101870;;;3.9;87
61571;BME280;47463;49.884;10.010;2023-12-20T05:05:01;101890;;;3.9;88
61571;BME280;47463;49.884;10.010;2023-12-20T05:10:01;101890;;;4;88
61571;BME280;47463;49.884;10.010;2023-12-20T05:15:01;101890;;;4;88
61571;BME280;47463;49.884;10.010;2023-12-20T05:20:01;101890;;;4;88
61571;BME280;47463;49.884;10.010;2023-12-20T05:25:01;101900;;;4;88
61571;BME280;47463;49.884;10.010;2023-12-20T05:30:01;101910;;;4;88
61571;BME280;47463;49.884;10.010;2023-12-20T05:35:01;101920;;;4;88
61571;BME280;47463;49.884;10.010;2023-12-20T05:40:01;101930;;;4;88
61571;BME280;47463;49.884;10.010;2023-12-20T05:45:01;101920;;;4;88
61571;BME280;47463;49.884;10.010;2023-12-20T05:50:01;101930;;;4;88
61571;BME280;47463;49.884;10.010;2023-12-20T05:55:01;101940;;;4;89
61571;BME280;47463;49.884;10.010;2023-12-20T06:00:01;101930;;;4.1;88
61571;BME280;47463;49.884;10.010;2023-12-20T06:05:01;101950;;;4.1;88
61571;BME280;47463;49.884;10.010;2023-12-20T06:10:01;101940;;;4.1;88
61571;BME280;47463;49.884;10.010;2023-12-20T06:15:01;101960;;;4.1;88
61571;BME280;47463;49.884;10.010;2023-12-20T06:20:01;101960;;;4.1;88
61571;BME280;47463;49.884;10.010;2023-12-20T06:25:01;101960;;;4.2;88
61571;BME280;47463;49.884;10.010;2023-12-20T06:30:01;101970;;;4.2;88
61571;BME280;47463;49.884;10.010;2023-12-20T06:35:01;101970;;;4.2;88
61571;BME280;47463;49.884;10.010;2023-12-20T06:40:01;101970;;;4.2;89
61571;BME280;47463;49.884;10.010;2023-12-20T06:45:01;101980;;;4.1;89
61571;BME280;47463;49.884;10.010;2023-12-20T06:50:01;101980;;;4.1;89
61571;BME280;47463;49.884;10.010;2023-12-20T06:55:01;101980;;;4.1;89
61571;BME280;47463;49.884;10.010;2023-12-20T07:00:01;101990;;;4.3;89
61571;BME280;47463;49.884;10.010;2023-12-20T07:05:01;102000;;;4.3;88
61571;BME280;47463;49.884;10.010;2023-12-20T07:10:01;102000;;;4.4;87
61571;BME280;47463;49.884;10.010;2023-12-20T07:15:01;102020;;;4.4;87
61571;BME280;47463;49.884;10.010;2023-12-20T07:20:01;102020;;;4.4;87
61571;BME280;47463;49.884;10.010;2023-12-20T07:25:01;102030;;;4.3;87
61571;BME280;47463;49.884;10.010;2023-12-20T07:30:01;102030;;;4.2;87
61571;BME280;47463;49.884;10.010;2023-12-20T07:35:01;102020;;;4.2;86
61571;BME280;47463;49.884;10.010;2023-12-20T07:40:01;102020;;;4.1;85
61571;BME280;47463;49.884;10.010;2023-12-20T07:45:01;102030;;;4.1;84
61571;BME280;47463;49.884;10.010;2023-12-20T07:50:01;102030;;;4;84
61571;BME280;47463;49.884;10.010;2023-12-20T07:55:01;102030;;;4;84
61571;BME280;47463;49.884;10.010;2023-12-20T08:00:01;102030;;;4;83
61571;BME280;47463;49.884;10.010;2023-12-20T08:05:01;102030;;;4;83
61571;BME280;47463;49.884;10.010;2023-12-20T08:10:01;102040;;;4;83
61571;BME280;47463;49.884;10.010;2023-12-20T08:15:01;102040;;;4;83
61571;BME280;47463;49.884;10.010;2023-12-20T08:20:01;102050;;;4.1;83
61571;BME280;47463;49.884;10.010;2023-12-20T08:25:01;102050;;;4.3;82
61571;BME280;47463;49.884;10.010;2023-12-20T08:30:01;102050;;;4.3;81
61571;BME280;47463;49.884;10.010;2023-12-20T08:35:01;102050;;;4.4;81
61571;BME280;47463;49.884;10.010;2023-12-20T08:40:01;102040;;;4.4;81
61571;BME280;47463;49.884;10.010;2023-12-20T08:45:01;102050;;;4.5;81
61571;BME280;47463;49.884;10.010;2023-12-20T08:50:01;102060;;;4.5;80
61571;BME280;47463;49.884;10.010;2023-12-20T08:55:01;102060;;;4.5;80
61571;BME280;47463;49.884;10.010;2023-12-20T09:00:01;102060;;;4.4;80
61571;BME280;47463;49.884;10.010;2023-12-20T09:05:01;102060;;;4.5;80
61571;BME280;47463;49.884;10.010;2023-12-20T09:10:01;102060;;;4.6;80
61571;BME280;47463;49.884;10.010;2023-12-20T09:15:01;102060;;;4.7;79
61571;BME280;47463;49.884;10.010;2023-12-20T09:20:01;102070;;;4.8;80
61571;BME280;47463;49.884;10.010;2023-12-20T09:25:01;102060;;;4.8;79
61571;BME280;47463;49.884;10.010;2023-12-20T09:30:01;102070;;;4.8;79
61571;BME280;47463;49.884;10.010;2023-12-20T09:35:01;102060;;;4.8;79
61571;BME280;47463;49.884;10.010;2023-12-20T09:40:01;102070;;;4.7;80
61571;BME280;47463;49.884;10.010;2023-12-20T09:45:01;102080;;;4.7;79
61571;BME280;47463;49.884;10.010;2023-12-20T09:50:01;102080;;;4.7;79
61571;BME280;47463;49.884;10.010;2023-12-20T09:55:01;102090;;;4.7;79
61571;BME280;47463;49.884;10.010;2023-12-20T10:00:01;102080;;;4.7;79
61571;BME280;47463;49.884;10.010;2023-12-20T10:05:01;102080;;;4.7;79
61571;BME280;47463;49.884;10.010;2023-12-20T10:10:01;102070;;;4.9;79
61571;BME280;47463;49.884;10.010;2023-12-20T10:15:01;102060;;;5;79
61571;BME280;47463;49.884;10.010;2023-12-20T10:20:01;102060;;;5;78
61571;BME280;47463;49.884;10.010;2023-12-20T10:25:01;102060;;;4.9;79
61571;BME280;47463;49.884;10.010;2023-12-20T10:30:01;102060;;;5;78
61571;BME280;47463;49.884;10.010;2023-12-20T10:35:01;102050;;;5;78
61571;BME280;47463;49.884;10.010;2023-12-20T10:40:01;102050;;;5;78
61571;BME280;47463;49.884;10.010;2023-12-20T10:45:01;102030;;;5;78
61571;BME280;47463;49.884;10.010;2023-12-20T10:50:01;102030;;;5;78
61571;BME280;47463;49.884;10.010;2023-12-20T10:55:01;102040;;;5;78
61571;BME280;47463;49.884;10.010;2023-12-20T11:00:01;102030;;;5;78
61571;BME280;47463;49.884;10.010;2023-12-20T11:05:03;102020;;;4.9;79
61571;BME280;47463;49.884;10.010;2023-12-20T11:10:02;102030;;;4.9;79
61571;BME280;47463;49.884;10.010;2023-12-20T11:15:01;102020;;;5;79
61571;BME280;47463;49.884;10.010;2023-12-20T11:20:05;102010;;;5.1;77
61571;BME280;47463;49.884;10.010;2023-12-20T11:25:03;102010;;;5.1;78
61571;BME280;47463;49.884;10.010;2023-12-20T11:30:02;102010;;;5.1;77
61571;BME280;47463;49.884;10.010;2023-12-20T11:35:01;102020;;;5.1;77
61571;BME280;47463;49.884;10.010;2023-12-20T11:40:02;102000;;;5.1;77
61571;BME280;47463;49.884;10.010;2023-12-20T11:45:01;102000;;;5.1;77
61571;BME280;47463;49.884;10.010;2023-12-20T11:50:01;101990;;;5.1;77
61571;BME280;47463;49.884;10.010;2023-12-20T11:55:01;101990;;;5.1;77
61571;BME280;47463;49.884;10.010;2023-12-20T12:00:01;101980;;;5;77
61571;BME280;47463;49.884;10.010;2023-12-20T12:05:01;101980;;;5.1;77
61571;BME280;47463;49.884;10.010;2023-12-20T12:10:01;101980;;;5.1;76
61571;BME280;47463;49.884;10.010;2023-12-20T12:15:01;101970;;;5.3;76
61571;BME280;47463;49.884;10.010;2023-12-20T12:20:01;101960;;;5.3;75
61571;BME280;47463;49.884;10.010;2023-12-20T12:25:09;101950;;;5.5;75
61571;BME280;47463;49.884;10.010;2023-12-20T12:30:01;101950;;;5.6;74
61571;BME280;47463;49.884;10.010;2023-12-20T12:35:02;101940;;;5.6;74
61571;BME280;47463;49.884;10.010;2023-12-20T12:40:01;101960;;;5.6;74
61571;BME280;47463;49.884;10.010;2023-12-20T12:45:01;101960;;;5.5;74
61571;BME280;47463;49.884;10.010;2023-12-20T12:50:01;101960;;;5.5;73
61571;BME280;47463;49.884;10.010;2023-12-20T12:55:01;101970;;;5.4;73
61571;BME280;47463;49.884;10.010;2023-12-20T13:00:01;101970;;;5.4;73
61571;BME280;47463;49.884;10.010;2023-12-20T13:05:01;101950;;;5.4;73
61571;BME280;47463;49.884;10.010;2023-12-20T13:10:01;101940;;;5.4;73
61571;BME280;47463;49.884;10.010;2023-12-20T13:15:01;101950;;;5.4;73
61571;BME280;47463;49.884;10.010;2023-12-20T13:20:01;101950;;;5.3;73
61571;BME280;47463;49.884;10.010;2023-12-20T13:25:01;101930;;;5.3;73
61571;BME280;47463;49.884;10.010;2023-12-20T13:30:01;101930;;;5.3;73
61571;BME280;47463;49.884;10.010;2023-12-20T13:35:01;101920;;;5.3;73
61571;BME280;47463;49.884;10.010;2023-12-20T13:40:01;101920;;;5.2;74
61571;BME280;47463;49.884;10.010;2023-12-20T13:45:01;101910;;;5.2;74
61571;BME280;47463;49.884;10.010;2023-12-20T13:50:01;101890;;;5.3;74
61571;BME280;47463;49.884;10.010;2023-12-20T13:55:01;101870;;;5.3;73
61571;BME280;47463;49.884;10.010;2023-12-20T14:00:01;101870;;;5.3;73
61571;BME280;47463;49.884;10.010;2023-12-20T14:05:01;101850;;;5.2;74
61571;BME280;47463;49.884;10.010;2023-12-20T14:10:01;101860;;;5.3;74
61571;BME280;47463;49.884;10.010;2023-12-20T14:15:01;101850;;;5.3;74
61571;BME280;47463;49.884;10.010;2023-12-20T14:20:01;101850;;;5.2;75
61571;BME280;47463;49.884;10.010;2023-12-20T14:25:01;101850;;;5.1;75
61571;BME280;47463;49.884;10.010;2023-12-20T14:30:01;101850;;;5.1;75
61571;BME280;47463;49.884;10.010;2023-12-20T14:35:01;101870;;;5.1;75
61571;BME280;47463;49.884;10.010;2023-12-20T14:40:01;101880;;;5;75
61571;BME280;47463;49.884;10.010;2023-12-20T14:45:01;101880;;;5.1;75
61571;BME280;47463;49.884;10.010;2023-12-20T14:50:01;101890;;;5;75
61571;BME280;47463;49.884;10.010;2023-12-20T14:55:01;101880;;;5;76
61571;BME280;47463;49.884;10.010;2023-12-20T15:00:01;101880;;;4.9;76
61571;BME280;47463;49.884;10.010;2023-12-20T15:05:01;101880;;;5;76
61571;BME280;47463;49.884;10.010;2023-12-20T15:10:01;101890;;;5;76
61571;BME280;47463;49.884;10.010;2023-12-20T15:15:01;101890;;;5;76
61571;BME280;47463;49.884;10.010;2023-12-20T15:20:01;101890;;;5;76
61571;BME280;47463;49.884;10.010;2023-12-20T15:25:01;101880;;;5;76
61571;BME280;47463;49.884;10.010;2023-12-20T15:30:01;101860;;;4.9;76
61571;BME280;47463;49.884;10.010;2023-12-20T15:35:01;101870;;;5;76
61571;BME280;47463;49.884;10.010;2023-12-20T15:40:01;101870;;;4.9;76
61571;BME280;47463;49.884;10.010;2023-12-20T15:45:01;101870;;;4.8;76
61571;BME280;47463;49.884;10.010;2023-12-20T15:50:01;101850;;;4.8;76
61571;BME280;47463;49.884;10.010;2023-12-20T15:55:01;101860;;;4.8;76
61571;BME280;47463;49.884;10.010;2023-12-20T16:00:01;101870;;;4.8;76
61571;BME280;47463;49.884;10.010;2023-12-20T16:05:01;101870;;;4.8;77
61571;BME280;47463;49.884;10.010;2023-12-20T16:10:01;101870;;;4.7;77
61571;BME280;47463;49.884;10.010;2023-12-20T16:15:01;101860;;;4.7;77
61571;BME280;47463;49.884;10.010;2023-12-20T16:20:01;101870;;;4.7;77
61571;BME280;47463;49.884;10.010;2023-12-20T16:25:01;101870;;;4.7;77
61571;BME280;47463;49.884;10.010;2023-12-20T16:30:01;101890;;;4.7;77
61571;BME280;47463;49.884;10.010;2023-12-20T16:35:01;101880;;;4.8;77
61571;BME280;47463;49.884;10.010;2023-12-20T16:40:01;101870;;;4.7;77
61571;BME280;47463;49.884;10.010;2023-12-20T16:45:01;101870;;;4.7;77
61571;BME280;47463;49.884;10.010;2023-12-20T16:50:01;101870;;;4.7;77
61571;BME280;47463;49.884;10.010;2023-12-20T16:55:01;101850;;;4.7;77
61571;BME280;47463;49.884;10.010;2023-12-20T17:00:01;101860;;;4.8;77
61571;BME280;47463;49.884;10.010;2023-12-20T17:05:01;101860;;;4.8;77
61571;BME280;47463;49.884;10.010;2023-12-20T17:10:01;101870;;;4.8;77
61571;BME280;47463;49.884;10.010;2023-12-20T17:15:01;101860;;;4.8;77
61571;BME280;47463;49.884;10.010;2023-12-20T17:20:01;101870;;;4.9;77
61571;BME280;47463;49.884;10.010;2023-12-20T17:25:01;101860;;;4.9;77
61571;BME280;47463;49.884;10.010;2023-12-20T17:30:01;101860;;;4.7;78
61571;BME280;47463;49.884;10.010;2023-12-20T17:35:01;101850;;;4.6;79
61571;BME280;47463;49.884;10.010;2023-12-20T17:40:01;101860;;;4.6;80
61571;BME280;47463;49.884;10.010;2023-12-20T17:45:01;101860;;;4.5;80
61571;BME280;47463;49.884;10.010;2023-12-20T17:50:01;101860;;;4.5;80
61571;BME280;47463;49.884;10.010;2023-12-20T17:55:01;101860;;;4.5;81
61571;BME280;47463;49.884;10.010;2023-12-20T18:00:10;101840;;;4.5;81
61571;BME280;47463;49.884;10.010;2023-12-20T18:05:01;101860;;;4.4;82
61571;BME280;47463;49.884;10.010;2023-12-20T18:10:01;101860;;;4.3;83
61571;BME280;47463;49.884;10.010;2023-12-20T18:15:01;101860;;;4.3;83
61571;BME280;47463;49.884;10.010;2023-12-20T18:20:01;101850;;;4.3;83
61571;BME280;47463;49.884;10.010;2023-12-20T18:25:01;101850;;;4.3;83
61571;BME280;47463;49.884;10.010;2023-12-20T18:30:01;101840;;;4.4;83
61571;BME280;47463;49.884;10.010;2023-12-20T18:35:01;101860;;;4.4;83
61571;BME280;47463;49.884;10.010;2023-12-20T18:40:01;101850;;;4.4;83
61571;BME280;47463;49.884;10.010;2023-12-20T18:45:01;101850;;;4.5;83
61571;BME280;47463;49.884;10.010;2023-12-20T18:50:01;101840;;;4.4;83
61571;BME280;47463;49.884;10.010;2023-12-20T18:55:01;101830;;;4.4;83
61571;BME280;47463;49.884;10.010;2023-12-20T19:00:01;101830;;;4.3;84
61571;BME280;47463;49.884;10.010;2023-12-20T19:05:01;101820;;;4.3;84
61571;BME280;47463;49.884;10.010;2023-12-20T19:10:01;101820;;;4.3;85
61571;BME280;47463;49.884;10.010;2023-12-20T19:15:01;101820;;;4.3;85
61571;BME280;47463;49.884;10.010;2023-12-20T19:20:01;101830;;;4.3;85
61571;BME280;47463;49.884;10.010;2023-12-20T19:25:01;101820;;;4.3;86
61571;BME280;47463;49.884;10.010;2023-12-20T19:30:01;101820;;;4.2;86
61571;BME280;47463;49.884;10.010;2023-12-20T19:35:01;101810;;;4.2;86
61571;BME280;47463;49.884;10.010;2023-12-20T19:40:01;101800;;;4.3;86
61571;BME280;47463;49.884;10.010;2023-12-20T19:45:01;101800;;;4.4;86
61571;BME280;47463;49.884;10.010;2023-12-20T19:50:01;101790;;;4.4;86
61571;BME280;47463;49.884;10.010;2023-12-20T19:55:01;101780;;;4.4;85
61571;BME280;47463;49.884;10.010;2023-12-20T20:00:01;101770;;;4.5;85
61571;BME280;47463;49.884;10.010;2023-12-20T20:05:01;101770;;;4.5;85
61571;BME280;47463;49.884;10.010;2023-12-20T20:10:01;101780;;;4.5;86
61571;BME280;47463;49.884;10.010;2023-12-20T20:15:01;101780;;;4.5;86
61571;BME280;47463;49.884;10.010;2023-12-20T20:20:01;101770;;;4.4;86
61571;BME280;47463;49.884;10.010;2023-12-20T20:25:01;101760;;;4.4;86
61571;BME280;47463;49.884;10.010;2023-12-20T20:30:01;101770;;;4.4;86
61571;BME280;47463;49.884;10.010;2023-12-20T20:35:01;101770;;;4.5;86
61571;BME280;47463;49.884;10.010;2023-12-20T20:40:01;101760;;;4.4;86
61571;BME280;47463;49.884;10.010;2023-12-20T20:45:01;101750;;;4.5;86
61571;BME280;47463;49.884;10.010;2023-12-20T20:50:01;101740;;;4.5;86
61571;BME280;47463;49.884;10.010;2023-12-20T20:55:01;101740;;;4.5;86
61571;BME280;47463;49.884;10.010;2023-12-20T21:00:01;101730;;;4.5;86
61571;BME280;47463;49.884;10.010;2023-12-20T21:05:01;101730;;;4.5;86
61571;BME280;47463;49.884;10.010;2023-12-20T21:10:01;101730;;;4.5;86
61571;BME280;47463;49.884;10.010;2023-12-20T21:15:01;101720;;;4.5;87
61571;BME280;47463;49.884;10.010;2023-12-20T21:20:01;101720;;;4.5;86
61571;BME280;47463;49.884;10.010;2023-12-20T21:25:01;101710;;;4.6;86
61571;BME280;47463;49.884;10.010;2023-12-20T21:30:01;101710;;;4.6;86
61571;BME280;47463;49.884;10.010;2023-12-20T21:35:01;101690;;;4.6;85
61571;BME280;47463;49.884;10.010;2023-12-20T21:40:01;101680;;;4.7;85
61571;BME280;47463;49.884;10.010;2023-12-20T21:45:01;101690;;;4.7;85
61571;BME280;47463;49.884;10.010;2023-12-20T21:50:01;101680;;;4.7;85
61571;BME280;47463;49.884;10.010;2023-12-20T21:55:01;101670;;;4.7;85
61571;BME280;47463;49.884;10.010;2023-12-20T22:00:01;101660;;;4.7;85
61571;BME280;47463;49.884;10.010;2023-12-20T22:05:01;101640;;;4.8;85
61571;BME280;47463;49.884;10.010;2023-12-20T22:10:01;101640;;;4.8;85
61571;BME280;47463;49.884;10.010;2023-12-20T22:15:01;101640;;;4.8;85
61571;BME280;47463;49.884;10.010;2023-12-20T22:20:01;101610;;;4.8;85
61571;BME280;47463;49.884;10.010;2023-12-20T22:25:01;101610;;;4.8;85
61571;BME280;47463;49.884;10.010;2023-12-20T22:30:01;101600;;;4.8;85
61571;BME280;47463;49.884;10.010;2023-12-20T22:35:01;101580;;;4.7;86
61571;BME280;47463;49.884;10.010;2023-12-20T22:40:01;101580;;;4.8;86
61571;BME280;47463;49.884;10.010;2023-12-20T22:45:01;101570;;;4.8;86
61571;BME280;47463;49.884;10.010;2023-12-20T22:50:01;101570;;;4.8;85
61571;BME280;47463;49.884;10.010;2023-12-20T22:55:01;101550;;;4.9;85
61571;BME280;47463;49.884;10.010;2023-12-20T23:00:01;101560;;;4.9;85
61571;BME280;47463;49.884;10.010;2023-12-20T23:05:01;101550;;;4.9;85
61571;BME280;47463;49.884;10.010;2023-12-20T23:10:01;101550;;;4.8;85
61571;BME280;47463;49.884;10.010;2023-12-20T23:15:01;101560;;;4.7;85
61571;BME280;47463;49.884;10.010;2023-12-20T23:20:01;101550;;;4.7;85
61571;BME280;47463;49.884;10.010;2023-12-20T23:25:01;101540;;;4.7;86
61571;BME280;47463;49.884;10.010;2023-12-20T23:30:01;101530;;;4.7;86
61571;BME280;47463;49.884;10.010;2023-12-20T23:35:01;101530;;;4.7;86
61571;BME280;47463;49.884;10.010;2023-12-20T23:40:01;101510;;;4.6;86
61571;BME280;47463;49.884;10.010;2023-12-20T23:45:01;101490;;;4.7;86
61571;BME280;47463;49.884;10.010;2023-12-20T23:50:01;101470;;;4.6;86
61571;BME280;47463;49.884;10.010;2023-12-20T23:55:01;101460;;;4.6;87
